createdAt,value
2019-02-23T00:00:19.147Z,99.90
2019-02-23T00:03:00.120Z,99.90
2019-02-23T00:05:39.224Z,99.90
2019-02-23T00:08:18.648Z,99.90
2019-02-23T00:10:57.718Z,99.90
2019-02-23T00:13:37.707Z,99.90
2019-02-23T00:16:16.836Z,99.90
2019-02-23T00:18:56.071Z,99.90
2019-02-23T00:21:35.345Z,99.90
2019-02-23T00:24:14.507Z,99.90
2019-02-23T00:26:53.673Z,99.90
2019-02-23T00:29:33.107Z,99.90
2019-02-23T00:32:12.341Z,99.90
2019-02-23T00:34:51.879Z,99.90
2019-02-23T00:37:31.190Z,99.90
2019-02-23T00:40:10.835Z,99.90
2019-02-23T00:42:50.035Z,99.90
2019-02-23T00:45:29.333Z,99.90
2019-02-23T00:48:08.651Z,99.90
2019-02-23T00:50:51.050Z,99.90
2019-02-23T00:53:32.502Z,99.90
2019-02-23T00:56:14.192Z,99.90
2019-02-23T00:58:53.293Z,99.90
2019-02-23T01:01:32.582Z,99.90
2019-02-23T01:04:11.887Z,99.90
2019-02-23T01:06:52.266Z,99.90
2019-02-23T01:09:32.632Z,99.90
2019-02-23T01:12:11.945Z,99.90
2019-02-23T01:14:51.065Z,99.90
2019-02-23T01:17:31.718Z,99.90
2019-02-23T01:20:11.898Z,99.90
2019-02-23T01:22:51.258Z,99.90
2019-02-23T01:25:30.446Z,99.90
2019-02-23T01:28:10.556Z,99.90
2019-02-23T01:30:51.838Z,99.90
2019-02-23T01:33:33.056Z,99.90
2019-02-23T01:36:12.194Z,99.90
2019-02-23T01:38:51.658Z,99.90
2019-02-23T01:41:32.835Z,99.90
2019-02-23T01:44:14.691Z,99.90
2019-02-23T01:46:55.335Z,99.90
2019-02-23T01:49:34.696Z,99.90
2019-02-23T01:52:13.969Z,99.90
2019-02-23T01:54:53.307Z,99.90
2019-02-23T01:57:32.549Z,99.90
2019-02-23T02:00:15.206Z,99.90
2019-02-23T02:02:54.374Z,99.90
2019-02-23T02:05:33.793Z,99.90
2019-02-23T02:08:15.854Z,99.90
2019-02-23T02:10:57.411Z,99.90
2019-02-23T02:13:37.190Z,99.90
2019-02-23T02:16:16.500Z,99.90
2019-02-23T02:18:55.820Z,99.90
2019-02-23T02:21:34.965Z,99.90
2019-02-23T02:24:14.078Z,99.90
2019-02-23T02:26:53.199Z,99.90
2019-02-23T02:29:45.465Z,99.90
2019-02-23T02:32:27.173Z,99.90
2019-02-23T02:35:07.004Z,99.90
2019-02-23T02:37:47.337Z,99.90
2019-02-23T02:40:26.538Z,99.90
2019-02-23T02:43:06.105Z,99.90
2019-02-23T02:45:45.214Z,99.90
2019-02-23T02:48:24.737Z,99.90
2019-02-23T02:51:04.178Z,99.90
2019-02-23T02:53:43.385Z,99.90
2019-02-23T02:56:22.515Z,99.90
2019-02-23T02:59:02.160Z,99.90
2019-02-23T03:01:41.307Z,99.90
2019-02-23T03:04:20.374Z,99.90
2019-02-23T03:06:59.571Z,99.90
2019-02-23T03:09:38.834Z,99.90
2019-02-23T03:12:17.973Z,99.90
2019-02-23T03:14:57.292Z,99.90
2019-02-23T03:17:36.455Z,99.90
2019-02-23T03:20:16.012Z,99.90
2019-02-23T03:22:55.092Z,99.90
2019-02-23T03:25:34.480Z,99.90
2019-02-23T03:28:13.716Z,99.90
2019-02-23T03:30:55.407Z,99.90
2019-02-23T03:33:34.569Z,99.90
2019-02-23T03:36:13.668Z,99.90
2019-02-23T03:38:52.753Z,99.90
2019-02-23T03:41:31.978Z,99.90
2019-02-23T03:44:12.447Z,99.90
2019-02-23T03:46:52.983Z,99.90
2019-02-23T03:49:35.180Z,99.90
2019-02-23T03:52:14.373Z,99.90
2019-02-23T03:54:53.489Z,99.90
2019-02-23T03:57:32.898Z,99.90
2019-02-23T04:00:13.420Z,99.90
2019-02-23T04:02:52.713Z,99.90
2019-02-23T04:05:31.909Z,99.90
2019-02-23T04:08:11.315Z,99.90
2019-02-23T04:10:50.501Z,99.90
2019-02-23T04:13:29.847Z,99.90
2019-02-23T04:16:09.284Z,99.90
2019-02-23T04:18:48.907Z,99.90
2019-02-23T04:21:28.096Z,99.90
2019-02-23T04:24:07.478Z,99.90
2019-02-23T04:26:46.547Z,99.90
2019-02-23T04:29:27.066Z,99.90
2019-02-23T04:32:09.189Z,99.90
2019-02-23T04:34:48.402Z,99.90
2019-02-23T04:37:27.502Z,99.90
2019-02-23T04:40:06.966Z,99.90
2019-02-23T04:42:48.947Z,99.90
2019-02-23T04:45:28.868Z,99.90
2019-02-23T04:48:08.025Z,99.90
2019-02-23T04:50:47.199Z,99.90
2019-02-23T04:53:29.018Z,99.90
2019-02-23T04:56:08.338Z,99.90
2019-02-23T04:58:49.078Z,99.90
2019-02-23T05:01:28.226Z,99.90
2019-02-23T05:04:07.389Z,99.90
2019-02-23T05:06:46.519Z,99.90
2019-02-23T05:09:25.688Z,99.90
2019-02-23T05:12:04.838Z,99.90
2019-02-23T05:14:44.027Z,99.90
2019-02-23T05:17:24.676Z,99.90
2019-02-23T05:20:05.223Z,99.90
2019-02-23T05:22:44.344Z,99.90
2019-02-23T05:25:23.522Z,99.90
2019-02-23T05:28:02.620Z,99.90
2019-02-23T05:30:41.740Z,99.90
2019-02-23T05:33:20.872Z,99.90
2019-02-23T05:36:00.006Z,99.90
2019-02-23T05:38:39.298Z,99.90
2019-02-23T05:41:18.402Z,99.90
2019-02-23T05:43:57.704Z,99.90
2019-02-23T05:46:36.850Z,99.90
2019-02-23T05:49:16.172Z,99.90
2019-02-23T05:51:55.298Z,99.90
2019-02-23T05:54:34.601Z,99.90
2019-02-23T05:57:14.974Z,99.90
2019-02-23T05:59:54.314Z,99.90
2019-02-23T06:02:33.491Z,99.90
2019-02-23T06:05:12.780Z,99.90
2019-02-23T06:07:52.049Z,99.90
2019-02-23T06:10:31.667Z,99.90
2019-02-23T06:13:10.807Z,99.90
2019-02-23T06:15:50.170Z,99.90
2019-02-23T06:18:29.269Z,99.90
2019-02-23T06:21:09.867Z,99.90
2019-02-23T06:23:50.424Z,99.90
2019-02-23T06:26:29.741Z,99.90
2019-02-23T06:29:08.869Z,99.90
2019-02-23T06:31:48.284Z,99.90
2019-02-23T06:34:27.364Z,99.90
2019-02-23T06:37:06.668Z,99.90
2019-02-23T06:39:45.766Z,99.90
2019-02-23T06:42:25.117Z,99.90
2019-02-23T06:45:04.349Z,99.90
2019-02-23T06:47:43.719Z,99.90
2019-02-23T06:50:23.029Z,99.90
2019-02-23T06:53:02.217Z,99.90
2019-02-23T06:55:43.754Z,99.90
2019-02-23T06:58:23.159Z,99.90
2019-02-23T07:01:04.422Z,99.90
2019-02-23T07:03:44.884Z,99.90
2019-02-23T07:06:27.188Z,99.90
2019-02-23T07:09:08.356Z,99.90
2019-02-23T07:11:47.633Z,99.90
2019-02-23T07:14:26.900Z,99.90
2019-02-23T07:17:07.329Z,99.90
2019-02-23T07:19:47.517Z,99.90
2019-02-23T07:22:26.860Z,99.90
2019-02-23T07:25:07.346Z,99.90
2019-02-23T07:27:46.466Z,99.90
2019-02-23T07:30:25.696Z,99.90
2019-02-23T07:33:04.839Z,99.90
2019-02-23T07:35:44.531Z,99.90
2019-02-23T07:38:25.085Z,99.90
2019-02-23T07:41:04.446Z,99.90
2019-02-23T07:43:43.576Z,99.90
2019-02-23T07:46:22.976Z,99.90
2019-02-23T07:49:05.016Z,99.90
2019-02-23T07:51:44.511Z,99.90
2019-02-23T07:54:23.914Z,99.90
2019-02-23T07:57:03.437Z,99.90
2019-02-23T07:59:42.833Z,99.90
2019-02-23T08:02:22.167Z,99.90
2019-02-23T08:05:01.399Z,99.90
2019-02-23T08:07:41.029Z,99.90
2019-02-23T08:10:20.188Z,99.90
2019-02-23T08:13:01.280Z,99.90
2019-02-23T08:15:41.321Z,92.10
2019-02-23T08:18:21.108Z,88.70
2019-02-23T08:21:00.984Z,85.00
2019-02-23T08:23:41.128Z,79.20
2019-02-23T08:26:21.086Z,73.20
2019-02-23T08:29:01.549Z,67.00
2019-02-23T08:31:41.723Z,62.10
2019-02-23T08:34:21.940Z,58.90
2019-02-23T08:37:01.974Z,53.20
2019-02-23T08:39:43.819Z,53.40
2019-02-23T08:42:23.637Z,50.50
2019-02-23T08:45:06.556Z,46.40
2019-02-23T08:47:46.196Z,44.90
2019-02-23T08:50:26.157Z,42.40
2019-02-23T08:53:07.022Z,40.90
2019-02-23T08:55:48.140Z,42.50
2019-02-23T08:58:31.456Z,39.90
2019-02-23T09:01:11.235Z,39.50
2019-02-23T09:03:51.777Z,38.40
2019-02-23T09:06:31.609Z,38.80
2019-02-23T09:09:12.768Z,37.90
2019-02-23T09:11:52.635Z,38.60
2019-02-23T09:14:32.229Z,37.90
2019-02-23T09:17:11.781Z,38.20
2019-02-23T09:19:53.320Z,38.00
2019-02-23T09:22:32.827Z,40.10
2019-02-23T09:25:12.737Z,40.00
2019-02-23T09:27:52.446Z,38.10
2019-02-23T09:30:31.962Z,37.00
2019-02-23T09:33:13.732Z,37.10
2019-02-23T09:35:53.409Z,35.70
2019-02-23T09:38:33.633Z,35.70
2019-02-23T09:41:14.632Z,35.30
2019-02-23T09:43:54.314Z,35.60
2019-02-23T09:46:33.967Z,35.00
2019-02-23T09:49:14.040Z,34.60
2019-02-23T09:51:53.744Z,34.20
2019-02-23T09:54:33.838Z,35.60
2019-02-23T09:57:15.024Z,35.50
2019-02-23T09:59:55.245Z,34.00
2019-02-23T10:02:36.247Z,32.90
2019-02-23T10:05:19.186Z,33.10
2019-02-23T10:07:59.102Z,33.10
2019-02-23T10:10:39.093Z,33.70
2019-02-23T10:13:18.658Z,32.50
2019-02-23T10:15:58.394Z,33.10
2019-02-23T10:18:39.825Z,31.90
2019-02-23T10:21:22.448Z,32.80
2019-02-23T10:24:07.767Z,33.70
2019-02-23T10:26:47.454Z,34.30
2019-02-23T10:29:29.052Z,34.80
2019-02-23T10:32:10.384Z,33.50
2019-02-23T10:34:50.077Z,34.90
2019-02-23T10:37:30.143Z,35.70
2019-02-23T10:40:11.184Z,34.10
2019-02-23T10:42:52.322Z,35.20
2019-02-23T10:45:31.915Z,35.70
2019-02-23T10:48:11.521Z,34.50
2019-02-23T10:50:51.313Z,34.50
2019-02-23T10:53:33.046Z,34.60
2019-02-23T10:56:12.561Z,33.90
2019-02-23T10:58:52.616Z,33.70
2019-02-23T11:01:33.636Z,31.20
2019-02-23T11:04:13.669Z,30.70
2019-02-23T11:06:53.567Z,29.70
2019-02-23T11:09:36.143Z,29.80
2019-02-23T11:12:15.798Z,30.60
2019-02-23T11:14:55.793Z,30.00
2019-02-23T11:17:35.460Z,30.00
2019-02-23T11:20:17.125Z,31.00
2019-02-23T11:22:57.887Z,30.00
2019-02-23T11:25:37.877Z,28.40
2019-02-23T11:28:18.756Z,29.60
2019-02-23T11:30:59.945Z,29.10
2019-02-23T11:33:39.727Z,29.90
2019-02-23T11:36:19.779Z,28.40
2019-02-23T11:38:59.510Z,27.50
2019-02-23T11:41:39.473Z,27.40
2019-02-23T11:44:19.315Z,27.00
2019-02-23T11:47:00.230Z,26.40
2019-02-23T11:49:43.730Z,26.40
2019-02-23T11:52:45.221Z,25.80
2019-02-23T11:55:25.181Z,25.50
2019-02-23T11:58:05.873Z,24.60
2019-02-23T12:00:45.859Z,24.30
2019-02-23T12:03:26.036Z,23.60
2019-02-23T12:06:06.352Z,23.70
2019-02-23T12:08:49.811Z,22.90
2019-02-23T12:11:31.908Z,22.50
2019-02-23T12:14:11.655Z,22.40
2019-02-23T12:16:52.062Z,22.70
2019-02-23T12:19:31.669Z,24.20
2019-02-23T12:22:12.611Z,22.60
2019-02-23T12:24:53.058Z,22.20
2019-02-23T12:27:33.072Z,22.00
2019-02-23T12:30:14.675Z,23.30
2019-02-23T12:32:54.914Z,23.00
2019-02-23T12:35:34.780Z,23.90
2019-02-23T12:38:14.633Z,22.70
2019-02-23T12:40:54.212Z,23.00
2019-02-23T12:43:34.030Z,22.90
2019-02-23T12:46:13.749Z,23.20
2019-02-23T12:48:53.665Z,24.10
2019-02-23T12:51:33.411Z,24.80
2019-02-23T12:54:17.263Z,23.10
2019-02-23T12:56:59.237Z,23.70
2019-02-23T12:59:38.994Z,25.10
2019-02-23T13:02:18.500Z,23.50
2019-02-23T13:04:58.431Z,22.80
2019-02-23T13:07:41.489Z,23.00
2019-02-23T13:10:21.292Z,25.40
2019-02-23T13:13:28.237Z,24.10
2019-02-23T13:16:55.389Z,25.10
2019-02-23T13:20:26.494Z,25.40
2019-02-23T13:23:57.935Z,24.10
2019-02-23T13:27:07.072Z,24.50
2019-02-23T13:30:38.228Z,24.50
2019-02-23T13:34:05.056Z,25.00
2019-02-23T13:37:53.855Z,24.70
2019-02-23T13:41:17.003Z,24.80
2019-02-23T13:44:41.577Z,25.20
2019-02-23T13:47:59.117Z,28.00
2019-02-23T13:51:09.722Z,26.60
2019-02-23T13:54:13.224Z,27.00
2019-02-23T13:57:35.799Z,26.50
2019-02-23T14:01:03.105Z,26.00
2019-02-23T14:04:37.462Z,25.30
2019-02-23T14:07:44.751Z,25.20
2019-02-23T14:11:09.446Z,25.70
2019-02-23T14:14:35.752Z,26.10
2019-02-23T14:17:36.272Z,26.90
2019-02-23T14:21:19.369Z,27.10
2019-02-23T14:24:29.067Z,26.30
2019-02-23T14:27:49.139Z,26.40
2019-02-23T14:31:08.719Z,26.80
2019-02-23T14:34:59.144Z,25.70
2019-02-23T14:38:37.439Z,26.90
2019-02-23T14:41:48.310Z,28.40
2019-02-23T14:44:45.500Z,28.80
2019-02-23T14:48:19.981Z,29.10
2019-02-23T14:51:50.832Z,30.10
2019-02-23T14:55:22.497Z,31.70
2019-02-23T14:58:45.720Z,33.10
2019-02-23T15:01:59.465Z,35.00
2019-02-23T15:05:57.626Z,35.30
2019-02-23T15:09:22.723Z,35.60
2019-02-23T15:12:31.999Z,35.60
2019-02-23T15:16:34.730Z,36.00
2019-02-23T15:20:41.752Z,35.90
2019-02-23T15:24:30.074Z,35.90
2019-02-23T15:28:26.393Z,36.90
2019-02-23T15:31:40.343Z,37.00
2019-02-23T15:35:05.160Z,38.10
2019-02-23T15:39:00.539Z,39.30
2019-02-23T15:42:23.040Z,39.50
2019-02-23T15:45:42.405Z,39.50
2019-02-23T15:49:24.458Z,40.60
2019-02-23T15:52:07.289Z,39.80
2019-02-23T15:54:47.176Z,39.70
2019-02-23T15:57:27.044Z,39.40
2019-02-23T16:00:07.827Z,40.70
2019-02-23T16:02:48.933Z,40.90
2019-02-23T16:05:29.142Z,40.60
2019-02-23T16:08:09.969Z,41.30
2019-02-23T16:10:49.757Z,41.00
2019-02-23T16:13:29.699Z,41.10
2019-02-23T16:16:09.976Z,42.30
2019-02-23T16:18:50.036Z,43.60
2019-02-23T16:21:29.853Z,44.50
2019-02-23T16:24:10.010Z,42.50
2019-02-23T16:26:49.996Z,43.20
2019-02-23T16:29:30.228Z,44.20
2019-02-23T16:32:10.180Z,44.20
2019-02-23T16:34:50.128Z,47.60
2019-02-23T16:37:30.071Z,44.70
2019-02-23T16:40:11.620Z,44.40
2019-02-23T16:42:51.538Z,44.10
2019-02-23T16:45:31.587Z,44.40
2019-02-23T16:48:11.033Z,45.00
2019-02-23T16:50:51.140Z,45.00
2019-02-23T16:53:31.309Z,44.80
2019-02-23T16:56:13.329Z,45.70
2019-02-23T16:58:53.021Z,49.80
2019-02-23T17:01:37.023Z,47.90
2019-02-23T17:04:17.031Z,46.30
2019-02-23T17:06:56.907Z,46.60
2019-02-23T17:09:39.028Z,47.40
2019-02-23T17:12:18.417Z,47.40
2019-02-23T17:14:58.262Z,48.60
2019-02-23T17:17:38.288Z,48.40
2019-02-23T17:20:18.198Z,49.60
2019-02-23T17:23:02.176Z,51.10
2019-02-23T17:25:43.963Z,49.10
2019-02-23T17:28:23.586Z,48.30
2019-02-23T17:31:04.021Z,47.40
2019-02-23T17:33:44.176Z,48.20
2019-02-23T17:36:23.760Z,50.70
2019-02-23T17:39:05.355Z,51.40
2019-02-23T17:41:48.089Z,51.00
2019-02-23T17:44:27.712Z,54.20
2019-02-23T17:47:07.260Z,55.70
2019-02-23T17:49:46.974Z,59.90
2019-02-23T17:52:29.354Z,60.50
2019-02-23T17:55:09.762Z,63.80
2019-02-23T17:57:54.274Z,71.30
2019-02-23T18:00:33.765Z,87.70
2019-02-23T18:03:13.875Z,96.60
2019-02-23T18:05:54.415Z,99.90
2019-02-23T18:08:34.272Z,99.90
2019-02-23T18:11:14.390Z,99.90
2019-02-23T18:13:54.123Z,99.50
2019-02-23T18:16:33.801Z,99.20
2019-02-23T18:19:13.094Z,99.80
2019-02-23T18:21:53.150Z,98.80
2019-02-23T18:24:32.481Z,98.40
2019-02-23T18:27:14.246Z,99.90
2019-02-23T18:29:54.109Z,99.90
2019-02-23T18:32:34.102Z,99.90
2019-02-23T18:35:16.655Z,99.90
2019-02-23T18:37:55.990Z,99.90
2019-02-23T18:40:35.227Z,99.90
2019-02-23T18:43:17.981Z,99.90
2019-02-23T18:45:57.334Z,99.90
2019-02-23T18:48:38.616Z,99.90
2019-02-23T18:51:18.478Z,99.90
2019-02-23T18:53:58.361Z,99.90
2019-02-23T18:56:40.359Z,99.90
2019-02-23T18:59:19.970Z,99.90
2019-02-23T19:02:01.001Z,99.90
2019-02-23T19:04:41.487Z,99.90
2019-02-23T19:07:25.666Z,99.90
2019-02-23T19:10:05.884Z,99.90
2019-02-23T19:12:46.325Z,99.90
2019-02-23T19:15:26.454Z,99.90
2019-02-23T19:18:06.541Z,99.90
2019-02-23T19:20:46.549Z,99.90
2019-02-23T19:23:26.751Z,99.90
2019-02-23T19:26:06.439Z,99.90
2019-02-23T19:28:46.633Z,99.90
2019-02-23T19:31:27.397Z,99.90
2019-02-23T19:34:07.107Z,99.90
2019-02-23T19:36:51.746Z,99.90
2019-02-23T19:39:31.799Z,99.90
2019-02-23T19:42:11.953Z,99.90
2019-02-23T19:44:53.334Z,99.90
2019-02-23T19:47:41.256Z,99.90
2019-02-23T19:50:26.678Z,99.90
2019-02-23T19:53:06.211Z,99.90
2019-02-23T19:55:46.263Z,99.90
2019-02-23T19:58:26.755Z,99.90
2019-02-23T20:01:06.281Z,99.90
2019-02-23T20:03:48.413Z,99.90
2019-02-23T20:06:28.393Z,99.90
2019-02-23T20:09:09.084Z,99.90
2019-02-23T20:11:51.015Z,99.90
2019-02-23T20:14:31.731Z,99.90
2019-02-23T20:17:11.475Z,99.90
2019-02-23T20:19:51.484Z,99.90
2019-02-23T20:22:35.288Z,99.90
2019-02-23T20:25:14.770Z,99.90
2019-02-23T20:27:57.271Z,99.90
2019-02-23T20:30:39.182Z,99.90
2019-02-23T20:33:19.206Z,99.90
2019-02-23T20:35:58.655Z,99.90
2019-02-23T20:38:39.576Z,99.90
2019-02-23T20:41:19.603Z,99.90
2019-02-23T20:43:58.921Z,99.90
2019-02-23T20:46:38.713Z,99.90
2019-02-23T20:49:18.418Z,99.90
2019-02-23T20:51:57.894Z,99.90
2019-02-23T20:54:37.432Z,99.90
2019-02-23T20:57:18.693Z,99.90
2019-02-23T20:59:58.760Z,99.90
2019-02-23T21:02:39.077Z,99.90
2019-02-23T21:05:21.410Z,99.90
2019-02-23T21:08:03.430Z,99.90
2019-02-23T21:10:42.843Z,99.90
2019-02-23T21:13:24.420Z,99.90
2019-02-23T21:16:07.881Z,99.90
2019-02-23T21:18:47.550Z,99.90
2019-02-23T21:21:31.336Z,99.90
2019-02-23T21:24:13.066Z,99.90
2019-02-23T21:26:52.811Z,99.90
2019-02-23T21:29:34.395Z,99.90
2019-02-23T21:32:16.137Z,99.90
2019-02-23T21:34:59.589Z,99.90
2019-02-23T21:37:38.879Z,99.90
2019-02-23T21:40:20.159Z,99.90
2019-02-23T21:43:04.272Z,99.90
2019-02-23T21:45:47.629Z,99.90
2019-02-23T21:48:30.153Z,99.90
2019-02-23T21:51:14.146Z,99.90
2019-02-23T21:53:53.445Z,99.90
2019-02-23T21:56:35.966Z,99.90
2019-02-23T21:59:15.141Z,99.90
2019-02-23T22:01:54.988Z,99.90
2019-02-23T22:04:34.342Z,99.90
2019-02-23T22:07:13.845Z,99.90
2019-02-23T22:09:53.215Z,99.90
2019-02-23T22:12:32.791Z,99.90
2019-02-23T22:15:12.209Z,99.90
2019-02-23T22:17:51.697Z,99.90
2019-02-23T22:20:31.445Z,99.90
2019-02-23T22:23:11.107Z,99.90
2019-02-23T22:25:50.515Z,99.90
2019-02-23T22:28:31.162Z,99.90
2019-02-23T22:31:11.822Z,99.90
2019-02-23T22:33:52.216Z,99.90
2019-02-23T22:36:31.749Z,99.90
2019-02-23T22:39:11.787Z,99.90
2019-02-23T22:41:50.934Z,99.90
2019-02-23T22:44:31.003Z,99.90
2019-02-23T22:47:10.407Z,99.90
2019-02-23T22:49:51.372Z,99.90
2019-02-23T22:52:31.124Z,99.90
2019-02-23T22:55:10.824Z,99.90
2019-02-23T22:57:50.059Z,99.90
2019-02-23T23:00:52.379Z,99.90
2019-02-23T23:03:33.615Z,99.90
2019-02-23T23:06:13.386Z,99.90
2019-02-23T23:08:52.689Z,99.90
2019-02-23T23:11:32.617Z,99.90
2019-02-23T23:14:13.982Z,99.90
2019-02-23T23:16:53.465Z,99.90
2019-02-23T23:19:33.106Z,99.90
2019-02-23T23:22:15.305Z,99.90
2019-02-23T23:24:54.755Z,99.90
2019-02-23T23:27:34.402Z,99.90
2019-02-23T23:30:13.983Z,99.90
2019-02-23T23:32:53.567Z,99.90
2019-02-23T23:35:34.675Z,99.90
2019-02-23T23:38:14.111Z,99.90
2019-02-23T23:40:53.499Z,99.90
2019-02-23T23:43:35.283Z,99.90
2019-02-23T23:46:14.499Z,99.90
2019-02-23T23:48:54.150Z,99.90
2019-02-23T23:51:36.058Z,99.90
2019-02-23T23:54:15.451Z,99.90
2019-02-23T23:56:55.980Z,99.90
2019-02-23T23:59:35.414Z,99.90
